sensor_id;sensor_type;location;lat;lon;timestamp;P1;durP1;ratioP1;P2;durP2;ratioP2
15402;SDS011;7799;53.478;10.170;2023-05-10T00:00:28;3.27;;;2.77;;
15402;SDS011;7799;53.478;10.170;2023-05-10T00:02:54;2.60;;;2.40;;
15402;SDS011;7799;53.478;10.170;2023-05-10T00:05:21;2.73;;;2.53;;
15402;SDS011;7799;53.478;10.170;2023-05-10T00:07:48;2.60;;;2.40;;
15402;SDS011;7799;53.478;10.170;2023-05-10T00:10:14;3.23;;;2.63;;
15402;SDS011;7799;53.478;10.170;2023-05-10T00:12:42;4.97;;;2.80;;
15402;SDS011;7799;53.478;10.170;2023-05-10T00:15:09;2.70;;;2.40;;
15402;SDS011;7799;53.478;10.170;2023-05-10T00:17:36;3.00;;;2.63;;
15402;SDS011;7799;53.478;10.170;2023-05-10T00:20:03;3.13;;;2.83;;
15402;SDS011;7799;53.478;10.170;2023-05-10T00:22:31;2.80;;;2.60;;
15402;SDS011;7799;53.478;10.170;2023-05-10T00:24:58;4.50;;;2.40;;
15402;SDS011;7799;53.478;10.170;2023-05-10T00:27:24;3.93;;;3.13;;
15402;SDS011;7799;53.478;10.170;2023-05-10T00:29:53;3.63;;;3.10;;
15402;SDS011;7799;53.478;10.170;2023-05-10T00:32:19;3.40;;;2.97;;
15402;SDS011;7799;53.478;10.170;2023-05-10T00:35:00;3.37;;;2.77;;
15402;SDS011;7799;53.478;10.170;2023-05-10T00:37:27;2.50;;;2.20;;
15402;SDS011;7799;53.478;10.170;2023-05-10T00:39:54;2.80;;;2.60;;
15402;SDS011;7799;53.478;10.170;2023-05-10T00:42:20;2.53;;;2.33;;
15402;SDS011;7799;53.478;10.170;2023-05-10T00:44:47;2.77;;;2.57;;
15402;SDS011;7799;53.478;10.170;2023-05-10T00:47:16;2.97;;;2.67;;
15402;SDS011;7799;53.478;10.170;2023-05-10T00:49:43;3.17;;;2.87;;
15402;SDS011;7799;53.478;10.170;2023-05-10T00:52:10;4.80;;;2.60;;
15402;SDS011;7799;53.478;10.170;2023-05-10T00:54:37;2.70;;;2.50;;
15402;SDS011;7799;53.478;10.170;2023-05-10T00:57:03;3.00;;;2.80;;
15402;SDS011;7799;53.478;10.170;2023-05-10T00:59:30;3.13;;;2.90;;
15402;SDS011;7799;53.478;10.170;2023-05-10T01:01:57;3.07;;;2.67;;
15402;SDS011;7799;53.478;10.170;2023-05-10T01:04:25;3.03;;;2.70;;
15402;SDS011;7799;53.478;10.170;2023-05-10T01:06:52;2.40;;;2.20;;
15402;SDS011;7799;53.478;10.170;2023-05-10T01:09:19;2.80;;;2.60;;
15402;SDS011;7799;53.478;10.170;2023-05-10T01:11:46;2.90;;;2.70;;
15402;SDS011;7799;53.478;10.170;2023-05-10T01:14:13;3.50;;;2.77;;
15402;SDS011;7799;53.478;10.170;2023-05-10T01:16:41;3.30;;;2.53;;
15402;SDS011;7799;53.478;10.170;2023-05-10T01:19:10;3.00;;;2.33;;
15402;SDS011;7799;53.478;10.170;2023-05-10T01:21:43;2.90;;;2.70;;
15402;SDS011;7799;53.478;10.170;2023-05-10T01:27:25;2.57;;;2.37;;
15402;SDS011;7799;53.478;10.170;2023-05-10T01:30:08;2.67;;;2.43;;
15402;SDS011;7799;53.478;10.170;2023-05-10T01:32:52;3.30;;;2.30;;
15402;SDS011;7799;53.478;10.170;2023-05-10T01:35:23;5.90;;;2.80;;
15402;SDS011;7799;53.478;10.170;2023-05-10T01:40:40;2.60;;;2.40;;
15402;SDS011;7799;53.478;10.170;2023-05-10T01:43:14;2.90;;;2.60;;
15402;SDS011;7799;53.478;10.170;2023-05-10T01:45:47;2.53;;;2.33;;
15402;SDS011;7799;53.478;10.170;2023-05-10T01:48:18;3.20;;;2.90;;
15402;SDS011;7799;53.478;10.170;2023-05-10T01:50:45;2.87;;;2.60;;
15402;SDS011;7799;53.478;10.170;2023-05-10T01:53:12;3.87;;;3.03;;
15402;SDS011;7799;53.478;10.170;2023-05-10T01:55:41;3.33;;;3.03;;
15402;SDS011;7799;53.478;10.170;2023-05-10T01:58:13;2.90;;;2.57;;
15402;SDS011;7799;53.478;10.170;2023-05-10T02:00:41;2.93;;;2.57;;
15402;SDS011;7799;53.478;10.170;2023-05-10T02:03:09;3.30;;;2.60;;
15402;SDS011;7799;53.478;10.170;2023-05-10T02:05:38;2.53;;;2.33;;
15402;SDS011;7799;53.478;10.170;2023-05-10T02:08:06;2.73;;;2.53;;
15402;SDS011;7799;53.478;10.170;2023-05-10T02:10:35;3.10;;;2.47;;
15402;SDS011;7799;53.478;10.170;2023-05-10T02:13:02;2.90;;;2.60;;
15402;SDS011;7799;53.478;10.170;2023-05-10T02:15:29;3.20;;;3.00;;
15402;SDS011;7799;53.478;10.170;2023-05-10T02:17:57;3.67;;;2.77;;
15402;SDS011;7799;53.478;10.170;2023-05-10T02:20:25;3.17;;;2.87;;
15402;SDS011;7799;53.478;10.170;2023-05-10T02:22:54;4.70;;;3.10;;
15402;SDS011;7799;53.478;10.170;2023-05-10T02:25:22;2.77;;;2.57;;
15402;SDS011;7799;53.478;10.170;2023-05-10T02:27:49;3.63;;;3.27;;
15402;SDS011;7799;53.478;10.170;2023-05-10T02:30:17;3.00;;;2.73;;
15402;SDS011;7799;53.478;10.170;2023-05-10T02:32:44;3.33;;;3.03;;
15402;SDS011;7799;53.478;10.170;2023-05-10T02:35:11;3.47;;;3.10;;
15402;SDS011;7799;53.478;10.170;2023-05-10T02:37:40;2.70;;;2.40;;
15402;SDS011;7799;53.478;10.170;2023-05-10T02:40:09;3.17;;;2.87;;
15402;SDS011;7799;53.478;10.170;2023-05-10T02:42:37;2.87;;;2.67;;
15402;SDS011;7799;53.478;10.170;2023-05-10T02:45:07;5.20;;;3.10;;
15402;SDS011;7799;53.478;10.170;2023-05-10T02:47:34;3.53;;;3.17;;
15402;SDS011;7799;53.478;10.170;2023-05-10T02:50:01;3.20;;;2.90;;
15402;SDS011;7799;53.478;10.170;2023-05-10T02:52:32;3.07;;;2.77;;
15402;SDS011;7799;53.478;10.170;2023-05-10T02:55:05;3.40;;;2.83;;
15402;SDS011;7799;53.478;10.170;2023-05-10T02:57:35;3.20;;;2.90;;
15402;SDS011;7799;53.478;10.170;2023-05-10T03:00:07;2.73;;;2.53;;
15402;SDS011;7799;53.478;10.170;2023-05-10T03:02:34;3.30;;;2.40;;
15402;SDS011;7799;53.478;10.170;2023-05-10T03:05:01;2.97;;;2.73;;
15402;SDS011;7799;53.478;10.170;2023-05-10T03:07:29;2.90;;;2.47;;
15402;SDS011;7799;53.478;10.170;2023-05-10T03:09:55;3.23;;;2.93;;
15402;SDS011;7799;53.478;10.170;2023-05-10T03:12:27;3.03;;;2.63;;
15402;SDS011;7799;53.478;10.170;2023-05-10T03:15:00;2.77;;;2.50;;
15402;SDS011;7799;53.478;10.170;2023-05-10T03:17:30;2.80;;;2.50;;
15402;SDS011;7799;53.478;10.170;2023-05-10T03:20:03;3.10;;;2.63;;
15402;SDS011;7799;53.478;10.170;2023-05-10T03:22:31;3.00;;;2.70;;
15402;SDS011;7799;53.478;10.170;2023-05-10T03:24:59;4.23;;;2.90;;
15402;SDS011;7799;53.478;10.170;2023-05-10T03:27:30;3.40;;;2.70;;
15402;SDS011;7799;53.478;10.170;2023-05-10T03:29:58;3.10;;;2.87;;
15402;SDS011;7799;53.478;10.170;2023-05-10T03:32:26;3.07;;;2.83;;
15402;SDS011;7799;53.478;10.170;2023-05-10T03:34:53;2.80;;;2.53;;
15402;SDS011;7799;53.478;10.170;2023-05-10T03:37:20;2.73;;;2.53;;
15402;SDS011;7799;53.478;10.170;2023-05-10T03:39:46;2.90;;;2.70;;
15402;SDS011;7799;53.478;10.170;2023-05-10T03:42:13;3.27;;;2.97;;
15402;SDS011;7799;53.478;10.170;2023-05-10T03:44:41;3.23;;;3.03;;
15402;SDS011;7799;53.478;10.170;2023-05-10T03:47:08;5.03;;;2.60;;
15402;SDS011;7799;53.478;10.170;2023-05-10T03:49:35;3.93;;;3.30;;
15402;SDS011;7799;53.478;10.170;2023-05-10T03:52:02;3.30;;;2.57;;
15402;SDS011;7799;53.478;10.170;2023-05-10T03:54:30;2.97;;;2.60;;
15402;SDS011;7799;53.478;10.170;2023-05-10T03:56:57;2.90;;;2.70;;
15402;SDS011;7799;53.478;10.170;2023-05-10T03:59:26;3.00;;;2.70;;
15402;SDS011;7799;53.478;10.170;2023-05-10T04:01:54;2.60;;;2.40;;
15402;SDS011;7799;53.478;10.170;2023-05-10T04:04:21;3.67;;;2.97;;
15402;SDS011;7799;53.478;10.170;2023-05-10T04:06:49;2.90;;;2.70;;
15402;SDS011;7799;53.478;10.170;2023-05-10T04:09:15;3.10;;;2.83;;
15402;SDS011;7799;53.478;10.170;2023-05-10T04:11:42;2.80;;;2.50;;
15402;SDS011;7799;53.478;10.170;2023-05-10T04:14:09;2.97;;;2.67;;
15402;SDS011;7799;53.478;10.170;2023-05-10T04:16:36;3.00;;;2.80;;
15402;SDS011;7799;53.478;10.170;2023-05-10T04:19:04;2.60;;;2.40;;
15402;SDS011;7799;53.478;10.170;2023-05-10T04:21:30;3.40;;;3.10;;
15402;SDS011;7799;53.478;10.170;2023-05-10T04:23:57;2.60;;;2.40;;
15402;SDS011;7799;53.478;10.170;2023-05-10T04:26:24;3.50;;;2.63;;
15402;SDS011;7799;53.478;10.170;2023-05-10T04:28:51;3.17;;;2.90;;
15402;SDS011;7799;53.478;10.170;2023-05-10T04:31:17;3.60;;;2.90;;
15402;SDS011;7799;53.478;10.170;2023-05-10T04:33:44;2.87;;;2.60;;
15402;SDS011;7799;53.478;10.170;2023-05-10T04:36:12;3.33;;;3.03;;
15402;SDS011;7799;53.478;10.170;2023-05-10T04:38:39;3.03;;;2.60;;
15402;SDS011;7799;53.478;10.170;2023-05-10T04:41:05;3.57;;;2.80;;
15402;SDS011;7799;53.478;10.170;2023-05-10T04:43:32;3.03;;;2.70;;
15402;SDS011;7799;53.478;10.170;2023-05-10T04:45:59;3.53;;;2.97;;
15402;SDS011;7799;53.478;10.170;2023-05-10T04:48:26;3.27;;;3.00;;
15402;SDS011;7799;53.478;10.170;2023-05-10T04:50:52;3.00;;;2.80;;
15402;SDS011;7799;53.478;10.170;2023-05-10T04:53:21;2.93;;;2.73;;
15402;SDS011;7799;53.478;10.170;2023-05-10T04:55:47;3.20;;;2.90;;
15402;SDS011;7799;53.478;10.170;2023-05-10T04:58:14;3.53;;;3.23;;
15402;SDS011;7799;53.478;10.170;2023-05-10T05:00:41;2.87;;;2.57;;
15402;SDS011;7799;53.478;10.170;2023-05-10T05:03:07;2.90;;;2.70;;
15402;SDS011;7799;53.478;10.170;2023-05-10T05:05:34;3.57;;;3.20;;
15402;SDS011;7799;53.478;10.170;2023-05-10T05:08:01;3.33;;;3.00;;
15402;SDS011;7799;53.478;10.170;2023-05-10T05:10:29;2.93;;;2.73;;
15402;SDS011;7799;53.478;10.170;2023-05-10T05:12:56;4.20;;;2.70;;
15402;SDS011;7799;53.478;10.170;2023-05-10T05:15:22;2.90;;;2.70;;
15402;SDS011;7799;53.478;10.170;2023-05-10T05:17:49;2.60;;;2.40;;
15402;SDS011;7799;53.478;10.170;2023-05-10T05:20:16;3.23;;;2.87;;
15402;SDS011;7799;53.478;10.170;2023-05-10T05:22:44;3.73;;;3.07;;
15402;SDS011;7799;53.478;10.170;2023-05-10T05:25:10;3.60;;;3.30;;
15402;SDS011;7799;53.478;10.170;2023-05-10T05:27:39;4.70;;;3.13;;
15402;SDS011;7799;53.478;10.170;2023-05-10T05:30:06;3.30;;;3.00;;
15402;SDS011;7799;53.478;10.170;2023-05-10T05:32:33;4.20;;;3.07;;
15402;SDS011;7799;53.478;10.170;2023-05-10T05:35:00;4.00;;;3.67;;
15402;SDS011;7799;53.478;10.170;2023-05-10T05:37:29;3.80;;;3.40;;
15402;SDS011;7799;53.478;10.170;2023-05-10T05:39:55;4.80;;;3.47;;
15402;SDS011;7799;53.478;10.170;2023-05-10T05:42:22;4.10;;;3.47;;
15402;SDS011;7799;53.478;10.170;2023-05-10T05:44:50;3.23;;;3.00;;
15402;SDS011;7799;53.478;10.170;2023-05-10T05:47:17;3.73;;;3.43;;
15402;SDS011;7799;53.478;10.170;2023-05-10T05:49:43;2.80;;;2.60;;
15402;SDS011;7799;53.478;10.170;2023-05-10T05:52:11;3.20;;;2.97;;
15402;SDS011;7799;53.478;10.170;2023-05-10T05:54:38;3.70;;;3.20;;
15402;SDS011;7799;53.478;10.170;2023-05-10T05:57:05;3.07;;;2.87;;
15402;SDS011;7799;53.478;10.170;2023-05-10T05:59:32;3.60;;;3.30;;
15402;SDS011;7799;53.478;10.170;2023-05-10T06:02:00;3.00;;;2.80;;
15402;SDS011;7799;53.478;10.170;2023-05-10T06:04:27;4.13;;;3.17;;
15402;SDS011;7799;53.478;10.170;2023-05-10T06:06:53;3.10;;;2.80;;
15402;SDS011;7799;53.478;10.170;2023-05-10T06:09:20;4.17;;;3.50;;
15402;SDS011;7799;53.478;10.170;2023-05-10T06:11:48;3.60;;;3.30;;
15402;SDS011;7799;53.478;10.170;2023-05-10T06:14:15;3.30;;;3.00;;
15402;SDS011;7799;53.478;10.170;2023-05-10T06:16:42;3.50;;;3.20;;
15402;SDS011;7799;53.478;10.170;2023-05-10T06:19:10;3.77;;;3.23;;
15402;SDS011;7799;53.478;10.170;2023-05-10T06:21:36;3.30;;;3.00;;
15402;SDS011;7799;53.478;10.170;2023-05-10T06:24:03;3.53;;;3.23;;
15402;SDS011;7799;53.478;10.170;2023-05-10T06:26:30;4.00;;;3.53;;
15402;SDS011;7799;53.478;10.170;2023-05-10T06:28:57;4.73;;;3.00;;
15402;SDS011;7799;53.478;10.170;2023-05-10T06:31:23;3.13;;;2.83;;
15402;SDS011;7799;53.478;10.170;2023-05-10T06:33:50;3.83;;;3.00;;
15402;SDS011;7799;53.478;10.170;2023-05-10T06:36:18;3.73;;;3.17;;
15402;SDS011;7799;53.478;10.170;2023-05-10T06:38:45;3.57;;;3.23;;
15402;SDS011;7799;53.478;10.170;2023-05-10T06:41:11;3.70;;;3.40;;
15402;SDS011;7799;53.478;10.170;2023-05-10T06:43:38;3.63;;;3.33;;
15402;SDS011;7799;53.478;10.170;2023-05-10T06:46:06;3.33;;;3.00;;
15402;SDS011;7799;53.478;10.170;2023-05-10T06:48:33;3.10;;;2.80;;
15402;SDS011;7799;53.478;10.170;2023-05-10T06:50:59;3.13;;;2.93;;
15402;SDS011;7799;53.478;10.170;2023-05-10T06:53:28;2.90;;;2.67;;
15402;SDS011;7799;53.478;10.170;2023-05-10T06:55:54;4.03;;;3.63;;
15402;SDS011;7799;53.478;10.170;2023-05-10T06:58:21;5.27;;;3.20;;
15402;SDS011;7799;53.478;10.170;2023-05-10T07:00:48;3.40;;;3.10;;
15402;SDS011;7799;53.478;10.170;2023-05-10T07:03:15;3.10;;;2.90;;
15402;SDS011;7799;53.478;10.170;2023-05-10T07:05:42;3.87;;;3.00;;
15402;SDS011;7799;53.478;10.170;2023-05-10T07:08:08;3.00;;;2.70;;
15402;SDS011;7799;53.478;10.170;2023-05-10T07:10:36;3.50;;;3.20;;
15402;SDS011;7799;53.478;10.170;2023-05-10T07:13:03;3.70;;;3.20;;
15402;SDS011;7799;53.478;10.170;2023-05-10T07:15:30;3.33;;;3.03;;
15402;SDS011;7799;53.478;10.170;2023-05-10T07:17:56;3.20;;;2.90;;
15402;SDS011;7799;53.478;10.170;2023-05-10T07:20:23;3.20;;;2.90;;
15402;SDS011;7799;53.478;10.170;2023-05-10T07:22:50;3.40;;;3.10;;
15402;SDS011;7799;53.478;10.170;2023-05-10T07:25:16;3.67;;;2.90;;
15402;SDS011;7799;53.478;10.170;2023-05-10T07:27:44;2.80;;;2.60;;
15402;SDS011;7799;53.478;10.170;2023-05-10T07:30:13;3.43;;;3.13;;
15402;SDS011;7799;53.478;10.170;2023-05-10T07:32:40;4.67;;;3.30;;
15402;SDS011;7799;53.478;10.170;2023-05-10T07:35:08;3.30;;;3.00;;
15402;SDS011;7799;53.478;10.170;2023-05-10T07:37:34;2.97;;;2.77;;
15402;SDS011;7799;53.478;10.170;2023-05-10T07:40:01;3.20;;;2.90;;
15402;SDS011;7799;53.478;10.170;2023-05-10T07:42:28;3.47;;;3.07;;
15402;SDS011;7799;53.478;10.170;2023-05-10T07:44:56;3.33;;;3.13;;
15402;SDS011;7799;53.478;10.170;2023-05-10T07:47:22;3.00;;;2.80;;
15402;SDS011;7799;53.478;10.170;2023-05-10T07:49:49;3.60;;;3.30;;
15402;SDS011;7799;53.478;10.170;2023-05-10T07:52:16;3.00;;;2.70;;
15402;SDS011;7799;53.478;10.170;2023-05-10T07:54:42;3.63;;;3.20;;
15402;SDS011;7799;53.478;10.170;2023-05-10T07:57:09;3.20;;;2.90;;
15402;SDS011;7799;53.478;10.170;2023-05-10T07:59:36;3.27;;;2.93;;
15402;SDS011;7799;53.478;10.170;2023-05-10T08:02:04;2.67;;;2.47;;
15402;SDS011;7799;53.478;10.170;2023-05-10T08:04:31;3.00;;;2.80;;
15402;SDS011;7799;53.478;10.170;2023-05-10T08:06:57;2.97;;;2.77;;
15402;SDS011;7799;53.478;10.170;2023-05-10T08:09:24;3.10;;;2.90;;
15402;SDS011;7799;53.478;10.170;2023-05-10T08:11:50;2.90;;;2.70;;
15402;SDS011;7799;53.478;10.170;2023-05-10T08:14:17;3.40;;;3.03;;
15402;SDS011;7799;53.478;10.170;2023-05-10T08:16:44;2.70;;;2.50;;
15402;SDS011;7799;53.478;10.170;2023-05-10T08:19:12;3.00;;;2.80;;
15402;SDS011;7799;53.478;10.170;2023-05-10T08:21:39;2.50;;;2.30;;
15402;SDS011;7799;53.478;10.170;2023-05-10T08:24:07;3.10;;;2.80;;
15402;SDS011;7799;53.478;10.170;2023-05-10T08:26:36;2.50;;;2.30;;
15402;SDS011;7799;53.478;10.170;2023-05-10T08:29:03;2.63;;;2.43;;
15402;SDS011;7799;53.478;10.170;2023-05-10T08:31:30;4.90;;;2.50;;
15402;SDS011;7799;53.478;10.170;2023-05-10T08:33:56;3.13;;;2.93;;
15402;SDS011;7799;53.478;10.170;2023-05-10T08:36:24;3.03;;;2.70;;
15402;SDS011;7799;53.478;10.170;2023-05-10T08:38:51;3.10;;;2.83;;
15402;SDS011;7799;53.478;10.170;2023-05-10T08:41:19;3.37;;;2.87;;
15402;SDS011;7799;53.478;10.170;2023-05-10T08:43:47;3.07;;;2.83;;
15402;SDS011;7799;53.478;10.170;2023-05-10T08:46:14;2.83;;;2.63;;
15402;SDS011;7799;53.478;10.170;2023-05-10T08:48:43;2.90;;;2.70;;
15402;SDS011;7799;53.478;10.170;2023-05-10T08:51:11;3.33;;;2.80;;
15402;SDS011;7799;53.478;10.170;2023-05-10T08:53:41;3.70;;;3.40;;
15402;SDS011;7799;53.478;10.170;2023-05-10T08:56:08;3.60;;;3.30;;
15402;SDS011;7799;53.478;10.170;2023-05-10T08:58:35;2.80;;;2.60;;
15402;SDS011;7799;53.478;10.170;2023-05-10T09:01:02;3.63;;;3.30;;
15402;SDS011;7799;53.478;10.170;2023-05-10T09:03:30;3.00;;;2.77;;
15402;SDS011;7799;53.478;10.170;2023-05-10T09:05:57;3.10;;;2.63;;
15402;SDS011;7799;53.478;10.170;2023-05-10T09:08:24;3.30;;;3.10;;
15402;SDS011;7799;53.478;10.170;2023-05-10T09:10:53;2.70;;;2.50;;
15402;SDS011;7799;53.478;10.170;2023-05-10T09:13:21;3.07;;;2.87;;
15402;SDS011;7799;53.478;10.170;2023-05-10T09:15:48;2.83;;;2.63;;
15402;SDS011;7799;53.478;10.170;2023-05-10T09:18:15;2.83;;;2.53;;
15402;SDS011;7799;53.478;10.170;2023-05-10T09:20:41;2.50;;;2.30;;
15402;SDS011;7799;53.478;10.170;2023-05-10T09:23:08;2.30;;;2.10;;
15402;SDS011;7799;53.478;10.170;2023-05-10T09:25:35;2.67;;;2.47;;
15402;SDS011;7799;53.478;10.170;2023-05-10T09:28:07;2.97;;;2.70;;
15402;SDS011;7799;53.478;10.170;2023-05-10T09:30:34;3.10;;;2.90;;
15402;SDS011;7799;53.478;10.170;2023-05-10T09:33:01;3.30;;;3.00;;
15402;SDS011;7799;53.478;10.170;2023-05-10T09:35:28;3.33;;;3.00;;
15402;SDS011;7799;53.478;10.170;2023-05-10T09:37:57;3.30;;;3.00;;
15402;SDS011;7799;53.478;10.170;2023-05-10T09:40:26;2.40;;;2.30;;
15402;SDS011;7799;53.478;10.170;2023-05-10T09:42:54;4.07;;;2.93;;
15402;SDS011;7799;53.478;10.170;2023-05-10T09:45:23;2.70;;;2.50;;
15402;SDS011;7799;53.478;10.170;2023-05-10T09:47:50;3.43;;;3.13;;
15402;SDS011;7799;53.478;10.170;2023-05-10T09:50:18;2.97;;;2.77;;
15402;SDS011;7799;53.478;10.170;2023-05-10T09:52:46;3.03;;;2.73;;
15402;SDS011;7799;53.478;10.170;2023-05-10T09:55:14;3.50;;;2.77;;
15402;SDS011;7799;53.478;10.170;2023-05-10T09:57:41;2.37;;;2.17;;
15402;SDS011;7799;53.478;10.170;2023-05-10T10:00:08;2.30;;;2.10;;
15402;SDS011;7799;53.478;10.170;2023-05-10T10:02:40;2.77;;;2.40;;
15402;SDS011;7799;53.478;10.170;2023-05-10T10:05:07;3.37;;;3.07;;
15402;SDS011;7799;53.478;10.170;2023-05-10T10:07:34;3.10;;;2.90;;
15402;SDS011;7799;53.478;10.170;2023-05-10T10:10:01;3.03;;;2.83;;
15402;SDS011;7799;53.478;10.170;2023-05-10T10:12:30;2.20;;;2.10;;
15402;SDS011;7799;53.478;10.170;2023-05-10T10:14:56;2.57;;;2.20;;
15402;SDS011;7799;53.478;10.170;2023-05-10T10:17:23;1.90;;;1.80;;
15402;SDS011;7799;53.478;10.170;2023-05-10T10:19:53;2.10;;;1.90;;
15402;SDS011;7799;53.478;10.170;2023-05-10T10:22:20;2.13;;;2.03;;
15402;SDS011;7799;53.478;10.170;2023-05-10T10:24:47;2.00;;;1.90;;
15402;SDS011;7799;53.478;10.170;2023-05-10T10:27:32;2.10;;;2.00;;
15402;SDS011;7799;53.478;10.170;2023-05-10T10:30:04;2.07;;;1.97;;
15402;SDS011;7799;53.478;10.170;2023-05-10T10:32:38;2.13;;;2.03;;
15402;SDS011;7799;53.478;10.170;2023-05-10T10:35:14;3.17;;;2.97;;
15402;SDS011;7799;53.478;10.170;2023-05-10T10:37:42;3.90;;;3.60;;
15402;SDS011;7799;53.478;10.170;2023-05-10T10:40:23;4.77;;;2.80;;
15402;SDS011;7799;53.478;10.170;2023-05-10T10:42:51;3.80;;;3.50;;
15402;SDS011;7799;53.478;10.170;2023-05-10T10:45:19;3.17;;;2.97;;
15402;SDS011;7799;53.478;10.170;2023-05-10T10:47:46;3.57;;;3.27;;
15402;SDS011;7799;53.478;10.170;2023-05-10T10:50:14;4.47;;;4.07;;
15402;SDS011;7799;53.478;10.170;2023-05-10T10:52:41;3.73;;;3.43;;
15402;SDS011;7799;53.478;10.170;2023-05-10T10:55:09;3.87;;;3.50;;
15402;SDS011;7799;53.478;10.170;2023-05-10T10:57:43;4.30;;;4.00;;
15402;SDS011;7799;53.478;10.170;2023-05-10T11:00:21;5.10;;;4.60;;
15402;SDS011;7799;53.478;10.170;2023-05-10T11:02:50;4.83;;;4.43;;
15402;SDS011;7799;53.478;10.170;2023-05-10T11:05:24;4.70;;;4.30;;
15402;SDS011;7799;53.478;10.170;2023-05-10T11:08:06;5.13;;;4.73;;
15402;SDS011;7799;53.478;10.170;2023-05-10T11:10:37;4.90;;;4.50;;
15402;SDS011;7799;53.478;10.170;2023-05-10T11:13:04;4.20;;;3.90;;
15402;SDS011;7799;53.478;10.170;2023-05-10T11:15:32;4.27;;;3.97;;
15402;SDS011;7799;53.478;10.170;2023-05-10T11:17:59;4.50;;;4.10;;
15402;SDS011;7799;53.478;10.170;2023-05-10T11:20:28;4.07;;;3.77;;
15402;SDS011;7799;53.478;10.170;2023-05-10T11:23:00;4.30;;;3.90;;
15402;SDS011;7799;53.478;10.170;2023-05-10T11:25:40;4.90;;;4.50;;
15402;SDS011;7799;53.478;10.170;2023-05-10T11:28:08;5.97;;;5.37;;
15402;SDS011;7799;53.478;10.170;2023-05-10T11:30:34;5.33;;;4.93;;
15402;SDS011;7799;53.478;10.170;2023-05-10T11:33:02;5.30;;;4.87;;
15402;SDS011;7799;53.478;10.170;2023-05-10T11:35:30;5.00;;;4.60;;
15402;SDS011;7799;53.478;10.170;2023-05-10T11:37:56;5.30;;;4.80;;
15402;SDS011;7799;53.478;10.170;2023-05-10T11:40:23;5.60;;;5.10;;
15402;SDS011;7799;53.478;10.170;2023-05-10T11:42:50;5.10;;;4.70;;
15402;SDS011;7799;53.478;10.170;2023-05-10T11:45:16;4.97;;;4.67;;
15402;SDS011;7799;53.478;10.170;2023-05-10T11:47:43;5.77;;;5.27;;
15402;SDS011;7799;53.478;10.170;2023-05-10T11:50:10;5.93;;;5.43;;
15402;SDS011;7799;53.478;10.170;2023-05-10T11:52:38;5.87;;;5.43;;
15402;SDS011;7799;53.478;10.170;2023-05-10T11:55:05;6.17;;;5.57;;
15402;SDS011;7799;53.478;10.170;2023-05-10T11:57:32;5.20;;;4.80;;
15402;SDS011;7799;53.478;10.170;2023-05-10T11:59:59;5.50;;;5.00;;
15402;SDS011;7799;53.478;10.170;2023-05-10T12:02:25;5.93;;;5.43;;
15402;SDS011;7799;53.478;10.170;2023-05-10T12:04:52;6.57;;;5.97;;
15402;SDS011;7799;53.478;10.170;2023-05-10T12:07:19;6.13;;;5.63;;
15402;SDS011;7799;53.478;10.170;2023-05-10T12:12:36;6.80;;;6.20;;
15402;SDS011;7799;53.478;10.170;2023-05-10T12:15:04;5.73;;;5.23;;
15402;SDS011;7799;53.478;10.170;2023-05-10T12:17:34;6.03;;;5.53;;
15402;SDS011;7799;53.478;10.170;2023-05-10T12:20:13;6.93;;;6.23;;
15402;SDS011;7799;53.478;10.170;2023-05-10T12:22:40;5.97;;;5.47;;
15402;SDS011;7799;53.478;10.170;2023-05-10T12:25:10;4.67;;;4.27;;
15402;SDS011;7799;53.478;10.170;2023-05-10T12:27:36;4.20;;;3.80;;
15402;SDS011;7799;53.478;10.170;2023-05-10T12:30:03;4.13;;;3.83;;
15402;SDS011;7799;53.478;10.170;2023-05-10T12:32:37;4.87;;;4.47;;
15402;SDS011;7799;53.478;10.170;2023-05-10T12:35:05;6.13;;;5.53;;
15402;SDS011;7799;53.478;10.170;2023-05-10T12:37:32;5.83;;;5.33;;
15402;SDS011;7799;53.478;10.170;2023-05-10T12:40:01;6.13;;;5.63;;
15402;SDS011;7799;53.478;10.170;2023-05-10T12:42:29;5.13;;;4.73;;
15402;SDS011;7799;53.478;10.170;2023-05-10T12:44:56;5.87;;;5.37;;
15402;SDS011;7799;53.478;10.170;2023-05-10T12:47:23;5.50;;;5.10;;
15402;SDS011;7799;53.478;10.170;2023-05-10T12:49:50;4.73;;;4.33;;
15402;SDS011;7799;53.478;10.170;2023-05-10T12:52:17;4.37;;;4.07;;
15402;SDS011;7799;53.478;10.170;2023-05-10T12:54:43;4.20;;;3.80;;
15402;SDS011;7799;53.478;10.170;2023-05-10T12:57:10;4.40;;;4.10;;
15402;SDS011;7799;53.478;10.170;2023-05-10T12:59:38;3.90;;;3.60;;
15402;SDS011;7799;53.478;10.170;2023-05-10T13:02:05;4.60;;;4.27;;
15402;SDS011;7799;53.478;10.170;2023-05-10T13:04:32;4.00;;;3.70;;
15402;SDS011;7799;53.478;10.170;2023-05-10T13:06:59;4.17;;;3.87;;
15402;SDS011;7799;53.478;10.170;2023-05-10T13:09:25;4.67;;;4.27;;
15402;SDS011;7799;53.478;10.170;2023-05-10T13:11:54;4.17;;;3.87;;
15402;SDS011;7799;53.478;10.170;2023-05-10T13:14:21;4.23;;;3.93;;
15402;SDS011;7799;53.478;10.170;2023-05-10T13:16:49;3.80;;;3.50;;
15402;SDS011;7799;53.478;10.170;2023-05-10T13:19:16;3.30;;;3.10;;
15402;SDS011;7799;53.478;10.170;2023-05-10T13:21:43;3.67;;;3.40;;
15402;SDS011;7799;53.478;10.170;2023-05-10T13:24:10;3.47;;;3.27;;
15402;SDS011;7799;53.478;10.170;2023-05-10T13:26:38;3.27;;;3.07;;
15402;SDS011;7799;53.478;10.170;2023-05-10T13:29:05;3.10;;;2.90;;
15402;SDS011;7799;53.478;10.170;2023-05-10T13:31:32;3.30;;;3.10;;
15402;SDS011;7799;53.478;10.170;2023-05-10T13:34:00;3.50;;;3.30;;
15402;SDS011;7799;53.478;10.170;2023-05-10T13:36:27;3.43;;;3.13;;
15402;SDS011;7799;53.478;10.170;2023-05-10T13:38:54;3.70;;;3.40;;
15402;SDS011;7799;53.478;10.170;2023-05-10T13:41:20;3.47;;;3.17;;
15402;SDS011;7799;53.478;10.170;2023-05-10T13:43:47;3.73;;;3.43;;
15402;SDS011;7799;53.478;10.170;2023-05-10T13:46:14;3.30;;;3.00;;
15402;SDS011;7799;53.478;10.170;2023-05-10T13:48:41;3.43;;;3.17;;
15402;SDS011;7799;53.478;10.170;2023-05-10T13:51:09;3.20;;;3.00;;
15402;SDS011;7799;53.478;10.170;2023-05-10T13:53:35;3.80;;;3.50;;
15402;SDS011;7799;53.478;10.170;2023-05-10T13:56:02;4.17;;;3.87;;
15402;SDS011;7799;53.478;10.170;2023-05-10T13:58:29;3.50;;;3.30;;
15402;SDS011;7799;53.478;10.170;2023-05-10T14:00:56;3.60;;;3.30;;
15402;SDS011;7799;53.478;10.170;2023-05-10T14:03:23;3.93;;;3.63;;
15402;SDS011;7799;53.478;10.170;2023-05-10T14:05:49;3.90;;;3.60;;
15402;SDS011;7799;53.478;10.170;2023-05-10T14:08:17;4.30;;;4.00;;
15402;SDS011;7799;53.478;10.170;2023-05-10T14:10:44;4.20;;;3.90;;
15402;SDS011;7799;53.478;10.170;2023-05-10T14:13:10;3.73;;;3.50;;
15402;SDS011;7799;53.478;10.170;2023-05-10T14:15:37;3.27;;;3.07;;
15402;SDS011;7799;53.478;10.170;2023-05-10T14:18:04;3.10;;;2.90;;
15402;SDS011;7799;53.478;10.170;2023-05-10T14:20:30;3.57;;;3.37;;
15402;SDS011;7799;53.478;10.170;2023-05-10T14:22:58;3.53;;;3.23;;
15402;SDS011;7799;53.478;10.170;2023-05-10T14:25:26;3.23;;;2.93;;
15402;SDS011;7799;53.478;10.170;2023-05-10T14:27:56;3.20;;;3.00;;
15402;SDS011;7799;53.478;10.170;2023-05-10T14:30:22;3.13;;;2.93;;
15402;SDS011;7799;53.478;10.170;2023-05-10T14:32:49;4.07;;;3.77;;
15402;SDS011;7799;53.478;10.170;2023-05-10T14:35:16;4.20;;;3.90;;
15402;SDS011;7799;53.478;10.170;2023-05-10T14:37:42;3.87;;;3.57;;
15402;SDS011;7799;53.478;10.170;2023-05-10T14:40:09;4.40;;;4.10;;
15402;SDS011;7799;53.478;10.170;2023-05-10T14:42:38;5.00;;;4.70;;
15402;SDS011;7799;53.478;10.170;2023-05-10T14:45:05;4.43;;;4.03;;
15402;SDS011;7799;53.478;10.170;2023-05-10T14:47:32;4.00;;;3.70;;
15402;SDS011;7799;53.478;10.170;2023-05-10T14:49:59;3.17;;;2.97;;
15402;SDS011;7799;53.478;10.170;2023-05-10T14:52:25;3.23;;;3.03;;
15402;SDS011;7799;53.478;10.170;2023-05-10T14:54:52;4.00;;;3.70;;
15402;SDS011;7799;53.478;10.170;2023-05-10T14:57:19;3.50;;;3.30;;
15402;SDS011;7799;53.478;10.170;2023-05-10T14:59:47;3.10;;;2.90;;